Time;durP1;ratioP1;P1;durP2;ratioP2;P2;SDS_P1;SDS_P2;PMS_P1;PMS_P2;Temp;Humidity;BMP_temperature;BMP_pressure;BME280_temperature;BME280_humidity;BME280_pressure;Samples;Min_cycle;Max_cycle;Signal;HPM_P1;HPM_P2
2022/07/31 00:01:50;;;;;;;1.15;1.02;;;;;;;;;;5006909;28;20030;-50
2022/07/31 00:04:36;;;;;;;14.05;1.75;;;;;;;;;;5009137;28;20113;-49
2022/07/31 00:07:22;;;;;;;2.10;1.13;;;;;;;;;;5004974;28;20471;-48
2022/07/31 00:10:08;;;;;;;2.63;1.20;;;;;;;;;;5007140;28;20546;-48
2022/07/31 00:12:54;;;;;;;7.38;1.50;;;;;;;;;;5005656;28;20181;-48
2022/07/31 00:15:39;;;;;;;4.53;1.13;;;;;;;;;;5004106;28;20053;-52
2022/07/31 00:18:25;;;;;;;1.52;0.88;;;;;;;;;;5006075;28;20022;-50
2022/07/31 00:21:12;;;;;;;5.90;1.50;;;;;;;;;;5006068;28;20033;-48
2022/07/31 00:23:58;;;;;;;2.63;1.38;;;;;;;;;;5006965;28;20395;-48
2022/07/31 00:26:44;;;;;;;4.15;1.40;;;;;;;;;;5007719;28;20026;-54
2022/07/31 00:29:30;;;;;;;1.77;1.30;;;;;;;;;;5005725;28;20034;-50
2022/07/31 00:32:15;;;;;;;1.73;1.42;;;;;;;;;;5007901;28;20034;-51
2022/07/31 00:35:01;;;;;;;1.67;1.25;;;;;;;;;;5005235;28;20037;-52
2022/07/31 00:37:47;;;;;;;3.50;1.25;;;;;;;;;;5004973;28;20089;-52
2022/07/31 00:40:33;;;;;;;4.35;1.25;;;;;;;;;;5005596;28;20123;-47
2022/07/31 00:43:19;;;;;;;1.27;1.05;;;;;;;;;;5004296;28;20471;-51
2022/07/31 00:46:05;;;;;;;1.42;1.20;;;;;;;;;;5005772;28;20046;-53
2022/07/31 00:48:51;;;;;;;2.25;1.42;;;;;;;;;;5006934;28;20034;-50
2022/07/31 00:51:38;;;;;;;4.00;1.00;;;;;;;;;;5004641;28;20045;-49
2022/07/31 00:54:24;;;;;;;1.63;1.20;;;;;;;;;;5005067;28;20395;-49
2022/07/31 00:57:10;;;;;;;1.90;1.40;;;;;;;;;;5005307;28;20053;-52
2022/07/31 00:59:56;;;;;;;1.67;1.35;;;;;;;;;;5003532;28;20069;-50
2022/07/31 01:02:41;;;;;;;2.58;1.20;;;;;;;;;;5005771;28;20540;-50
2022/07/31 01:05:27;;;;;;;5.22;1.70;;;;;;;;;;5007269;28;20056;-49
2022/07/31 01:08:13;;;;;;;1.33;1.23;;;;;;;;;;5005344;28;20037;-49
2022/07/31 01:11:07;;;;;;;4.25;1.30;;;;;;;;;;5006632;28;20111;-54
2022/07/31 01:14:00;;;;;;;4.53;1.40;;;;;;;;;;5007384;28;20034;-51
2022/07/31 01:16:48;;;;;;;3.63;1.40;;;;;;;;;;5003993;28;20442;-50
2022/07/31 01:19:42;;;;;;;2.47;1.20;;;;;;;;;;5005204;28;20070;-51
2022/07/31 01:22:46;;;;;;;1.38;1.15;;;;;;;;;;5006545;28;20049;-53
2022/07/31 01:26:07;;;;;;;6.57;1.40;;;;;;;;;;5006931;28;20030;-53
2022/07/31 01:29:24;;;;;;;3.22;1.30;;;;;;;;;;4965679;28;20061;-49
2022/07/31 01:32:17;;;;;;;2.00;1.40;;;;;;;;;;4966326;28;20049;-52
2022/07/31 01:35:14;;;;;;;9.05;1.10;;;;;;;;;;4967626;28;21051;-51
2022/07/31 01:38:31;;;;;;;3.42;1.40;;;;;;;;;;4966868;28;20129;-53
2022/07/31 01:41:23;;;;;;;2.50;1.17;;;;;;;;;;4967498;28;20027;-52
2022/07/31 01:44:10;;;;;;;4.60;1.33;;;;;;;;;;4964604;28;20511;-54
2022/07/31 01:46:57;;;;;;;3.88;1.10;;;;;;;;;;4966958;28;20118;-52
2022/07/31 01:49:44;;;;;;;2.25;1.20;;;;;;;;;;4963435;28;20034;-50
2022/07/31 01:52:31;;;;;;;1.80;1.30;;;;;;;;;;4965626;28;20046;-51
2022/07/31 01:55:18;;;;;;;2.10;1.50;;;;;;;;;;4964024;28;20031;-54
2022/07/31 01:58:05;;;;;;;2.78;1.20;;;;;;;;;;4966209;28;20050;-53
2022/07/31 02:00:54;;;;;;;5.97;1.40;;;;;;;;;;4965992;28;20642;-50
2022/07/31 02:03:41;;;;;;;3.33;1.60;;;;;;;;;;4977428;28;20506;-50
2022/07/31 02:06:27;;;;;;;9.70;2.35;;;;;;;;;;5004100;28;20065;-50
2022/07/31 02:09:16;;;;;;;3.53;1.48;;;;;;;;;;5007887;28;20110;-52
2022/07/31 02:12:03;;;;;;;2.15;1.38;;;;;;;;;;5004037;28;20030;-51
2022/07/31 02:14:50;;;;;;;2.30;1.40;;;;;;;;;;5006703;28;20403;-52
2022/07/31 02:17:36;;;;;;;4.38;1.60;;;;;;;;;;5004717;28;20049;-53
2022/07/31 02:20:25;;;;;;;1.35;1.25;;;;;;;;;;5006786;28;20052;-53
2022/07/31 02:23:10;;;;;;;1.90;1.20;;;;;;;;;;4999544;28;20052;-51
2022/07/31 02:25:56;;;;;;;3.10;1.25;;;;;;;;;;5005586;28;20030;-54
2022/07/31 02:28:45;;;;;;;3.17;1.30;;;;;;;;;;5004956;28;21262;-48
2022/07/31 02:31:33;;;;;;;1.65;1.20;;;;;;;;;;5004370;28;20037;-51
2022/07/31 02:34:21;;;;;;;1.25;1.08;;;;;;;;;;5003109;28;20034;-51
2022/07/31 02:37:08;;;;;;;1.27;1.17;;;;;;;;;;5008820;28;20390;-49
2022/07/31 02:39:54;;;;;;;5.00;1.33;;;;;;;;;;5005323;28;20037;-52
2022/07/31 02:42:41;;;;;;;1.42;1.23;;;;;;;;;;5005117;28;20029;-49
2022/07/31 02:45:27;;;;;;;3.38;1.23;;;;;;;;;;5009453;28;20731;-47
2022/07/31 02:48:13;;;;;;;1.70;1.17;;;;;;;;;;5009715;28;20034;-53
2022/07/31 02:50:58;;;;;;;1.98;1.30;;;;;;;;;;5008800;28;20058;-51
2022/07/31 02:53:45;;;;;;;1.48;1.05;;;;;;;;;;5007345;28;20030;-52
2022/07/31 02:56:32;;;;;;;2.75;1.52;;;;;;;;;;5007305;28;20137;-50
2022/07/31 02:59:18;;;;;;;2.63;1.35;;;;;;;;;;5012492;28;20034;-52
2022/07/31 03:02:05;;;;;;;2.42;1.40;;;;;;;;;;5006539;28;20034;-53
2022/07/31 03:04:51;;;;;;;5.97;1.60;;;;;;;;;;5006431;28;20026;-49
2022/07/31 03:07:38;;;;;;;3.13;1.40;;;;;;;;;;5007051;28;20050;-49
2022/07/31 03:10:24;;;;;;;1.67;1.10;;;;;;;;;;5005567;28;20092;-53
2022/07/31 03:13:11;;;;;;;2.33;1.30;;;;;;;;;;5006989;28;20526;-53
2022/07/31 03:15:58;;;;;;;3.78;1.27;;;;;;;;;;5006439;28;20042;-52
2022/07/31 03:18:45;;;;;;;1.40;1.30;;;;;;;;;;5006100;28;20496;-52
2022/07/31 03:21:31;;;;;;;3.50;1.55;;;;;;;;;;5006622;28;20065;-51
2022/07/31 03:24:18;;;;;;;4.82;1.65;;;;;;;;;;5009194;28;20108;-48
2022/07/31 03:27:03;;;;;;;7.38;1.40;;;;;;;;;;5010600;28;20045;-48
2022/07/31 03:29:49;;;;;;;2.88;1.55;;;;;;;;;;5007990;28;20038;-51
2022/07/31 03:32:35;;;;;;;3.83;1.45;;;;;;;;;;5008261;28;20030;-50
2022/07/31 03:35:23;;;;;;;3.78;1.30;;;;;;;;;;5009139;28;20026;-53
2022/07/31 03:38:08;;;;;;;1.58;1.38;;;;;;;;;;5009717;28;20105;-50
2022/07/31 03:40:54;;;;;;;1.38;1.20;;;;;;;;;;5005540;28;20125;-52
2022/07/31 03:43:42;;;;;;;1.48;1.10;;;;;;;;;;5008031;28;20030;-53
2022/07/31 03:46:28;;;;;;;2.75;1.38;;;;;;;;;;5006099;28;20026;-51
2022/07/31 03:49:14;;;;;;;1.80;1.70;;;;;;;;;;5008823;28;20029;-51
2022/07/31 03:52:00;;;;;;;1.60;1.50;;;;;;;;;;5008131;28;20032;-49
2022/07/31 03:54:45;;;;;;;3.38;1.52;;;;;;;;;;5006973;28;20037;-51
2022/07/31 03:57:32;;;;;;;2.40;1.42;;;;;;;;;;5007220;28;20053;-50
2022/07/31 04:00:21;;;;;;;2.05;1.63;;;;;;;;;;5010116;28;20034;-48
2022/07/31 04:03:09;;;;;;;5.53;1.90;;;;;;;;;;5002509;28;20112;-50
2022/07/31 04:05:55;;;;;;;1.10;1.02;;;;;;;;;;5006590;28;20108;-53
2022/07/31 04:08:41;;;;;;;2.47;1.48;;;;;;;;;;5006851;28;20112;-49
2022/07/31 04:11:27;;;;;;;5.88;1.70;;;;;;;;;;5007693;28;20136;-49
2022/07/31 04:14:13;;;;;;;1.30;1.30;;;;;;;;;;5009272;28;20045;-46
2022/07/31 04:16:59;;;;;;;4.00;1.60;;;;;;;;;;5005770;28;20033;-52
2022/07/31 04:19:44;;;;;;;7.07;1.45;;;;;;;;;;5004981;28;20398;-50
2022/07/31 04:22:30;;;;;;;1.30;1.20;;;;;;;;;;5006149;28;20056;-48
2022/07/31 04:25:16;;;;;;;2.50;1.35;;;;;;;;;;5006684;28;20032;-52
2022/07/31 04:28:01;;;;;;;3.15;1.50;;;;;;;;;;5007250;28;20483;-49
2022/07/31 04:30:47;;;;;;;1.38;1.27;;;;;;;;;;5007688;28;20483;-49
2022/07/31 04:33:33;;;;;;;2.55;1.50;;;;;;;;;;5004034;28;20113;-52
2022/07/31 04:36:18;;;;;;;3.40;1.67;;;;;;;;;;5008538;28;20037;-50
2022/07/31 04:39:04;;;;;;;5.25;1.50;;;;;;;;;;5008275;28;20117;-49
2022/07/31 04:41:50;;;;;;;8.52;1.55;;;;;;;;;;5007884;28;20138;-48
2022/07/31 04:44:36;;;;;;;2.35;1.38;;;;;;;;;;5004660;28;20034;-49
2022/07/31 04:47:21;;;;;;;2.42;1.25;;;;;;;;;;5007706;28;20391;-54
2022/07/31 04:50:08;;;;;;;3.53;1.35;;;;;;;;;;5003783;28;20153;-53
2022/07/31 04:52:53;;;;;;;1.50;1.40;;;;;;;;;;5003824;28;20499;-48
2022/07/31 04:55:39;;;;;;;3.80;1.33;;;;;;;;;;5005517;28;20033;-51
2022/07/31 04:58:25;;;;;;;1.65;1.45;;;;;;;;;;5003632;28;20084;-51
2022/07/31 05:01:10;;;;;;;1.90;1.27;;;;;;;;;;5007185;28;20038;-52
2022/07/31 05:03:57;;;;;;;3.15;1.08;;;;;;;;;;5008314;28;20049;-50
2022/07/31 05:06:49;;;;;;;4.38;1.27;;;;;;;;;;5006742;28;20380;-51
2022/07/31 05:09:34;;;;;;;4.10;1.55;;;;;;;;;;5007198;28;20034;-51
2022/07/31 05:12:20;;;;;;;5.32;1.73;;;;;;;;;;5004002;28;20107;-52
2022/07/31 05:15:06;;;;;;;2.20;1.35;;;;;;;;;;5004127;28;20389;-49
2022/07/31 05:17:52;;;;;;;3.83;1.58;;;;;;;;;;5006414;28;20041;-49
2022/07/31 05:20:37;;;;;;;4.15;1.60;;;;;;;;;;5006807;28;20599;-51
2022/07/31 05:23:25;;;;;;;3.60;1.60;;;;;;;;;;5007844;28;20120;-52
2022/07/31 05:26:12;;;;;;;2.60;1.55;;;;;;;;;;5003988;28;20077;-51
2022/07/31 05:28:58;;;;;;;2.30;1.55;;;;;;;;;;5005038;28;20034;-48
2022/07/31 05:31:44;;;;;;;4.18;1.50;;;;;;;;;;5003188;28;20179;-51
2022/07/31 05:34:30;;;;;;;4.18;1.60;;;;;;;;;;5003745;28;20025;-50
2022/07/31 05:37:16;;;;;;;2.85;1.25;;;;;;;;;;5003657;28;20037;-52
2022/07/31 05:40:02;;;;;;;4.85;1.70;;;;;;;;;;5006442;28;20025;-48
2022/07/31 05:42:48;;;;;;;2.67;1.55;;;;;;;;;;5005920;28;20081;-48
2022/07/31 05:45:34;;;;;;;1.52;1.42;;;;;;;;;;5005669;28;20042;-51
2022/07/31 05:48:20;;;;;;;2.53;1.48;;;;;;;;;;5005877;28;20445;-49
2022/07/31 05:51:09;;;;;;;1.45;1.33;;;;;;;;;;5002782;28;20034;-51
2022/07/31 05:53:54;;;;;;;4.95;1.27;;;;;;;;;;5004527;28;20042;-49
2022/07/31 05:56:40;;;;;;;1.50;1.40;;;;;;;;;;5007029;28;20403;-48
2022/07/31 05:59:26;;;;;;;1.33;1.23;;;;;;;;;;5005707;28;20928;-50
2022/07/31 06:02:11;;;;;;;4.88;1.30;;;;;;;;;;5005822;28;20528;-49
2022/07/31 06:04:57;;;;;;;2.83;1.40;;;;;;;;;;5006762;28;20029;-49
2022/07/31 06:07:45;;;;;;;2.20;1.50;;;;;;;;;;5003933;28;20030;-48
2022/07/31 06:10:31;;;;;;;2.28;1.25;;;;;;;;;;5003464;28;20445;-53
2022/07/31 06:13:17;;;;;;;1.70;1.50;;;;;;;;;;5006138;28;20067;-50
2022/07/31 06:16:04;;;;;;;1.50;1.40;;;;;;;;;;5008562;28;20037;-49
2022/07/31 06:18:49;;;;;;;1.95;1.50;;;;;;;;;;5008010;28;20437;-49
2022/07/31 06:21:35;;;;;;;2.28;1.40;;;;;;;;;;5008209;28;20039;-51
2022/07/31 06:24:21;;;;;;;3.97;1.70;;;;;;;;;;5009376;28;20578;-48
2022/07/31 06:27:06;;;;;;;3.90;1.55;;;;;;;;;;5011081;28;20479;-48
2022/07/31 06:29:52;;;;;;;1.83;1.63;;;;;;;;;;5008010;28;20502;-52
2022/07/31 06:32:38;;;;;;;4.05;1.73;;;;;;;;;;5002306;28;20560;-50
2022/07/31 06:35:24;;;;;;;3.65;1.52;;;;;;;;;;5009426;28;20804;-48
2022/07/31 06:38:10;;;;;;;3.42;1.70;;;;;;;;;;5009558;28;20025;-51
2022/07/31 06:40:55;;;;;;;5.20;1.35;;;;;;;;;;5010183;28;20044;-50
2022/07/31 06:43:41;;;;;;;6.13;1.70;;;;;;;;;;5008265;28;20041;-50
2022/07/31 06:46:27;;;;;;;1.80;1.35;;;;;;;;;;5007226;28;20029;-49
2022/07/31 06:49:12;;;;;;;2.95;1.65;;;;;;;;;;5007642;28;20030;-49
2022/07/31 06:51:58;;;;;;;2.97;1.50;;;;;;;;;;5008881;28;20038;-49
2022/07/31 06:54:44;;;;;;;3.70;1.60;;;;;;;;;;5008359;28;20033;-48
2022/07/31 06:57:30;;;;;;;3.55;1.27;;;;;;;;;;5004557;28;20049;-51
2022/07/31 07:00:15;;;;;;;3.75;1.58;;;;;;;;;;5007463;28;20127;-49
2022/07/31 07:03:01;;;;;;;1.88;1.17;;;;;;;;;;5007761;28;20108;-50
2022/07/31 07:05:47;;;;;;;2.25;1.75;;;;;;;;;;5007507;28;20037;-46
2022/07/31 07:08:33;;;;;;;3.50;1.50;;;;;;;;;;5009521;28;20049;-47
2022/07/31 07:11:19;;;;;;;2.83;1.50;;;;;;;;;;5006366;28;20073;-49
2022/07/31 07:14:04;;;;;;;3.25;1.25;;;;;;;;;;5010280;28;20064;-49
2022/07/31 07:16:50;;;;;;;1.63;1.40;;;;;;;;;;5007259;28;20031;-51
2022/07/31 07:19:40;;;;;;;4.43;1.60;;;;;;;;;;5007249;28;20041;-49
2022/07/31 07:22:26;;;;;;;1.58;1.48;;;;;;;;;;5006082;28;20033;-46
2022/07/31 07:25:12;;;;;;;2.33;1.73;;;;;;;;;;5007503;28;20116;-50
2022/07/31 07:27:58;;;;;;;1.42;1.33;;;;;;;;;;5007427;28;20123;-48
2022/07/31 07:30:43;;;;;;;1.50;1.40;;;;;;;;;;5005822;28;20141;-48
2022/07/31 07:33:30;;;;;;;3.55;1.30;;;;;;;;;;5008238;28;20483;-50
2022/07/31 07:36:16;;;;;;;5.22;1.70;;;;;;;;;;5005513;28;20029;-49
2022/07/31 07:39:02;;;;;;;2.25;1.50;;;;;;;;;;5005553;28;20069;-46
2022/07/31 07:41:48;;;;;;;2.72;1.60;;;;;;;;;;5004885;28;20109;-47
2022/07/31 07:44:33;;;;;;;3.42;1.70;;;;;;;;;;5006120;28;20048;-47
2022/07/31 07:47:19;;;;;;;2.17;1.73;;;;;;;;;;5005732;28;20034;-51
2022/07/31 07:50:07;;;;;;;3.83;1.73;;;;;;;;;;5008382;28;20105;-46
2022/07/31 07:52:53;;;;;;;3.15;1.60;;;;;;;;;;5006791;28;20037;-46
2022/07/31 07:55:38;;;;;;;3.45;1.80;;;;;;;;;;5006031;28;20029;-49
2022/07/31 07:58:24;;;;;;;4.53;1.70;;;;;;;;;;5003804;28;20046;-47
2022/07/31 08:01:10;;;;;;;8.38;1.80;;;;;;;;;;5003123;28;20034;-48
2022/07/31 08:03:55;;;;;;;1.65;1.55;;;;;;;;;;5003171;28;20418;-51
2022/07/31 08:06:41;;;;;;;2.55;1.70;;;;;;;;;;5010367;28;20498;-46
2022/07/31 08:09:27;;;;;;;1.83;1.73;;;;;;;;;;5005783;28;20418;-49
2022/07/31 08:12:13;;;;;;;7.90;1.90;;;;;;;;;;5005755;28;20030;-52
2022/07/31 08:14:59;;;;;;;3.80;1.90;;;;;;;;;;5006585;28;20038;-48
2022/07/31 08:17:44;;;;;;;1.92;1.52;;;;;;;;;;5006529;28;20022;-47
2022/07/31 08:20:30;;;;;;;2.60;1.88;;;;;;;;;;5006989;28;20537;-51
2022/07/31 08:23:16;;;;;;;2.75;1.85;;;;;;;;;;5009055;28;20051;-52
2022/07/31 08:26:03;;;;;;;2.80;1.63;;;;;;;;;;5007024;28;20038;-47
2022/07/31 08:28:49;;;;;;;3.92;1.80;;;;;;;;;;5003758;28;20042;-48
2022/07/31 08:31:34;;;;;;;2.55;1.83;;;;;;;;;;5007197;28;20030;-48
2022/07/31 08:34:20;;;;;;;4.20;1.60;;;;;;;;;;5008878;28;20030;-46
2022/07/31 08:37:06;;;;;;;2.80;1.75;;;;;;;;;;5006488;28;20038;-50
2022/07/31 08:39:52;;;;;;;5.88;1.90;;;;;;;;;;5005210;28;20061;-46
2022/07/31 08:42:37;;;;;;;3.72;1.77;;;;;;;;;;5005490;28;20092;-49
2022/07/31 08:45:23;;;;;;;7.50;1.73;;;;;;;;;;5006902;28;20034;-51
2022/07/31 08:48:10;;;;;;;1.88;1.77;;;;;;;;;;5005542;28;20025;-51
2022/07/31 08:50:57;;;;;;;4.13;2.10;;;;;;;;;;5003017;28;20030;-49
2022/07/31 08:53:43;;;;;;;2.15;1.80;;;;;;;;;;5005544;28;20030;-48
2022/07/31 08:56:29;;;;;;;3.80;1.52;;;;;;;;;;5007671;28;20058;-51
2022/07/31 08:59:16;;;;;;;1.90;1.80;;;;;;;;;;5004250;28;20100;-47
2022/07/31 09:02:03;;;;;;;4.10;1.80;;;;;;;;;;5007117;28;20109;-48
2022/07/31 09:04:49;;;;;;;5.15;1.70;;;;;;;;;;5003918;28;20035;-51
2022/07/31 09:07:35;;;;;;;2.33;1.60;;;;;;;;;;5007387;28;20069;-48
2022/07/31 09:10:26;;;;;;;7.78;1.60;;;;;;;;;;5007632;28;20041;-54
2022/07/31 09:13:14;;;;;;;3.30;1.63;;;;;;;;;;4999064;28;20034;-47
2022/07/31 09:16:01;;;;;;;2.50;1.80;;;;;;;;;;5004065;28;20041;-49
2022/07/31 09:19:03;;;;;;;4.65;1.70;;;;;;;;;;5003723;28;20112;-48
2022/07/31 09:21:51;;;;;;;4.85;2.00;;;;;;;;;;5000905;28;20038;-47
2022/07/31 09:24:36;;;;;;;1.55;1.45;;;;;;;;;;5004406;28;20084;-47
2022/07/31 09:27:27;;;;;;;1.90;1.50;;;;;;;;;;5005114;28;20034;-54
2022/07/31 09:30:14;;;;;;;6.32;1.88;;;;;;;;;;5004683;28;20049;-48
2022/07/31 09:33:17;;;;;;;2.28;1.58;;;;;;;;;;5005848;28;20025;-48
2022/07/31 09:36:04;;;;;;;1.92;1.60;;;;;;;;;;5006821;28;20065;-52
2022/07/31 09:38:50;;;;;;;1.70;1.50;;;;;;;;;;5005369;28;20069;-52
2022/07/31 09:41:36;;;;;;;12.27;1.50;;;;;;;;;;5003964;28;20072;-53
2022/07/31 09:44:21;;;;;;;2.60;1.50;;;;;;;;;;5003515;28;20033;-54
2022/07/31 09:47:31;;;;;;;4.93;1.58;;;;;;;;;;5005533;28;20052;-47
2022/07/31 09:50:22;;;;;;;4.28;1.90;;;;;;;;;;5004810;28;20033;-47
2022/07/31 09:53:08;;;;;;;;;;;;;;;;;;5001644;28;20045;-53
2022/07/31 09:55:56;;;;;;;2.47;1.70;;;;;;;;;;5009650;28;19925;-49
2022/07/31 09:58:42;;;;;;;4.40;1.58;;;;;;;;;;5003476;28;20498;-47
2022/07/31 10:01:29;;;;;;;1.90;1.45;;;;;;;;;;5005537;28;20103;-47
2022/07/31 10:04:20;;;;;;;2.30;1.60;;;;;;;;;;5005906;28;20399;-54
2022/07/31 10:07:06;;;;;;;1.67;1.45;;;;;;;;;;4999518;28;20031;-49
2022/07/31 10:09:55;;;;;;;6.45;1.52;;;;;;;;;;5003233;28;20061;-48
2022/07/31 10:12:46;;;;;;;4.22;1.60;;;;;;;;;;5004022;28;20129;-48
2022/07/31 10:15:35;;;;;;;2.83;1.63;;;;;;;;;;5005733;28;20032;-50
2022/07/31 10:18:23;;;;;;;2.58;1.30;;;;;;;;;;5002979;28;20116;-50
2022/07/31 10:21:10;;;;;;;1.95;1.40;;;;;;;;;;5004314;28;20038;-49
2022/07/31 10:23:58;;;;;;;3.38;1.13;;;;;;;;;;5004352;28;20419;-47
2022/07/31 10:26:44;;;;;;;4.20;1.23;;;;;;;;;;5003595;28;20129;-50
2022/07/31 10:29:32;;;;;;;1.40;1.30;;;;;;;;;;5005523;28;20058;-49
2022/07/31 10:32:18;;;;;;;1.83;1.08;;;;;;;;;;5003735;28;20087;-47
2022/07/31 10:35:06;;;;;;;1.60;1.23;;;;;;;;;;5004827;28;20045;-47
2022/07/31 10:38:16;;;;;;;5.15;1.38;;;;;;;;;;5002378;28;20033;-48
2022/07/31 10:41:31;;;;;;;2.05;1.30;;;;;;;;;;5001131;28;20029;-48
2022/07/31 10:44:26;;;;;;;1.50;1.40;;;;;;;;;;5002190;28;20478;-49
2022/07/31 10:47:16;;;;;;;2.05;1.25;;;;;;;;;;5004947;28;20124;-53
2022/07/31 10:50:03;;;;;;;3.25;1.30;;;;;;;;;;5002887;28;20041;-49
2022/07/31 10:52:50;;;;;;;1.38;1.20;;;;;;;;;;5004016;28;20104;-49
2022/07/31 10:55:36;;;;;;;1.45;1.30;;;;;;;;;;5005566;28;20398;-49
2022/07/31 10:58:23;;;;;;;1.40;1.30;;;;;;;;;;5007655;28;20042;-47
2022/07/31 11:01:10;;;;;;;4.43;1.30;;;;;;;;;;5009158;28;20372;-48
2022/07/31 11:04:01;;;;;;;1.73;1.60;;;;;;;;;;5010611;28;20038;-48
2022/07/31 11:06:49;;;;;;;1.10;1.10;;;;;;;;;;5006275;28;20470;-48
2022/07/31 11:09:34;;;;;;;8.10;1.90;;;;;;;;;;5007240;28;20084;-47
2022/07/31 11:12:20;;;;;;;3.08;1.27;;;;;;;;;;5010029;28;20065;-46
2022/07/31 11:15:21;;;;;;;1.55;1.17;;;;;;;;;;5008541;28;20029;-48
2022/07/31 11:18:21;;;;;;;1.02;1.00;;;;;;;;;;5005666;28;20072;-49
2022/07/31 11:21:09;;;;;;;2.40;1.55;;;;;;;;;;5005021;28;20061;-49
2022/07/31 11:23:55;;;;;;;2.85;1.50;;;;;;;;;;5008478;28;20127;-48
2022/07/31 11:26:46;;;;;;;1.25;1.15;;;;;;;;;;5008017;28;20029;-49
2022/07/31 11:29:38;;;;;;;3.28;1.48;;;;;;;;;;5007071;28;20114;-49
2022/07/31 11:32:23;;;;;;;4.00;1.38;;;;;;;;;;5005886;28;20042;-47
2022/07/31 11:35:09;;;;;;;2.28;1.75;;;;;;;;;;5007564;28;20046;-47
2022/07/31 11:37:58;;;;;;;5.50;1.33;;;;;;;;;;5010465;28;20084;-51
2022/07/31 11:40:48;;;;;;;2.35;1.27;;;;;;;;;;5004411;28;20507;-47
2022/07/31 11:43:36;;;;;;;1.67;1.40;;;;;;;;;;5008257;28;20120;-54
2022/07/31 11:46:27;;;;;;;4.40;1.40;;;;;;;;;;5008465;28;20431;-48
2022/07/31 11:49:20;;;;;;;1.42;1.30;;;;;;;;;;5008402;28;20089;-47
2022/07/31 11:52:08;;;;;;;4.32;1.60;;;;;;;;;;5006742;28;20022;-50
2022/07/31 11:55:16;;;;;;;2.15;1.90;;;;;;;;;;5007797;28;20032;-48
2022/07/31 11:58:02;;;;;;;1.48;1.38;;;;;;;;;;5007399;28;20048;-50
2022/07/31 12:00:50;;;;;;;5.22;1.30;;;;;;;;;;5005689;28;20029;-50
2022/07/31 12:03:37;;;;;;;1.65;1.35;;;;;;;;;;5002846;28;20037;-47
2022/07/31 12:06:23;;;;;;;3.50;1.50;;;;;;;;;;5002417;28;20041;-53
2022/07/31 12:09:09;;;;;;;1.83;1.25;;;;;;;;;;5006739;28;20026;-48
2022/07/31 12:11:55;;;;;;;7.70;1.73;;;;;;;;;;5007460;28;20041;-50
2022/07/31 12:14:41;;;;;;;3.83;3.45;;;;;;;;;;5007252;28;20497;-49
2022/07/31 12:17:26;;;;;;;2.42;1.80;;;;;;;;;;5005824;28;20533;-49
2022/07/31 12:20:13;;;;;;;2.45;1.50;;;;;;;;;;5007415;28;20399;-50
2022/07/31 12:22:59;;;;;;;1.98;1.10;;;;;;;;;;5006169;28;20072;-48
2022/07/31 12:25:45;;;;;;;1.67;1.38;;;;;;;;;;5007689;28;20061;-49
2022/07/31 12:28:31;;;;;;;3.65;1.40;;;;;;;;;;5006539;28;20022;-49
2022/07/31 12:31:17;;;;;;;1.50;1.17;;;;;;;;;;5004994;28;20112;-49
2022/07/31 12:34:03;;;;;;;5.72;1.50;;;;;;;;;;5005139;28;20092;-47
2022/07/31 12:36:59;;;;;;;3.67;1.38;;;;;;;;;;5003403;28;20512;-49
2022/07/31 12:39:55;;;;;;;1.15;0.93;;;;;;;;;;5008321;28;20025;-49
2022/07/31 12:42:43;;;;;;;2.67;1.45;;;;;;;;;;5006906;28;20034;-50
2022/07/31 12:45:37;;;;;;;1.38;1.27;;;;;;;;;;5005891;28;20033;-47
2022/07/31 12:48:22;;;;;;;2.05;1.40;;;;;;;;;;5004254;28;20549;-49
2022/07/31 12:51:08;;;;;;;3.00;1.45;;;;;;;;;;5006335;28;20032;-49
2022/07/31 12:53:54;;;;;;;2.70;1.30;;;;;;;;;;5007622;28;20034;-50
2022/07/31 12:56:40;;;;;;;1.58;1.45;;;;;;;;;;5002976;28;20050;-47
2022/07/31 12:59:26;;;;;;;1.80;1.45;;;;;;;;;;5004793;28;20061;-49
2022/07/31 13:02:12;;;;;;;2.97;1.30;;;;;;;;;;5006728;28;20026;-48
2022/07/31 13:04:58;;;;;;;4.03;1.60;;;;;;;;;;5007027;28;20486;-49
2022/07/31 13:07:43;;;;;;;1.60;1.50;;;;;;;;;;5006200;28;20037;-48
2022/07/31 13:10:29;;;;;;;1.98;1.70;;;;;;;;;;5007143;28;20503;-48
2022/07/31 13:13:15;;;;;;;4.50;1.52;;;;;;;;;;5006742;28;20025;-48
2022/07/31 13:16:01;;;;;;;1.27;1.17;;;;;;;;;;5005709;28;20033;-48
2022/07/31 13:18:47;;;;;;;1.73;1.48;;;;;;;;;;5006320;28;20037;-48
2022/07/31 13:21:33;;;;;;;2.67;1.20;;;;;;;;;;5003543;28;20088;-47
2022/07/31 13:24:19;;;;;;;2.85;1.10;;;;;;;;;;5004813;28;20029;-48
2022/07/31 13:27:05;;;;;;;1.50;1.40;;;;;;;;;;5005399;28;20115;-47
2022/07/31 13:29:52;;;;;;;3.45;1.33;;;;;;;;;;5006960;28;20391;-50
2022/07/31 13:32:38;;;;;;;3.20;1.30;;;;;;;;;;5008306;28;20038;-50
2022/07/31 13:35:24;;;;;;;1.75;1.20;;;;;;;;;;5005649;28;20030;-47
2022/07/31 13:38:12;;;;;;;1.40;1.30;;;;;;;;;;5004337;28;20037;-47
2022/07/31 13:44:02;;;;;;;2.17;1.30;;;;;;;;;;5007134;28;20026;-47
2022/07/31 13:46:48;;;;;;;0.95;0.95;;;;;;;;;;5004107;28;20034;-50
2022/07/31 13:49:34;;;;;;;6.75;1.25;;;;;;;;;;5005283;28;20030;-48
2022/07/31 13:52:19;;;;;;;2.15;1.30;;;;;;;;;;5003823;28;20144;-51
2022/07/31 13:55:06;;;;;;;3.30;0.90;;;;;;;;;;5002265;28;20395;-51
2022/07/31 13:57:51;;;;;;;5.38;1.55;;;;;;;;;;5005567;28;20384;-49
2022/07/31 14:00:37;;;;;;;3.00;1.20;;;;;;;;;;5006104;28;20029;-52
2022/07/31 14:03:23;;;;;;;1.33;1.23;;;;;;;;;;5003502;28;20034;-50
2022/07/31 14:06:09;;;;;;;4.22;1.40;;;;;;;;;;5006486;28;20030;-48
2022/07/31 14:08:55;;;;;;;2.88;1.20;;;;;;;;;;5002867;28;20042;-51
2022/07/31 14:11:41;;;;;;;2.75;1.30;;;;;;;;;;5003168;28;20037;-53
2022/07/31 14:14:26;;;;;;;5.75;1.38;;;;;;;;;;5004441;28;20044;-51
2022/07/31 14:17:12;;;;;;;2.33;1.30;;;;;;;;;;5005996;28;20064;-54
2022/07/31 14:19:58;;;;;;;2.47;1.25;;;;;;;;;;5006134;28;20128;-53
2022/07/31 14:22:43;;;;;;;1.83;1.48;;;;;;;;;;5004059;28;20482;-52
2022/07/31 14:25:31;;;;;;;1.13;1.00;;;;;;;;;;5002540;28;20439;-49
2022/07/31 14:28:16;;;;;;;1.17;1.10;;;;;;;;;;5004548;28;20061;-50
2022/07/31 14:31:02;;;;;;;1.88;1.30;;;;;;;;;;5002082;28;20045;-48
2022/07/31 14:33:48;;;;;;;2.75;1.58;;;;;;;;;;5006628;28;20442;-47
2022/07/31 14:36:34;;;;;;;3.03;1.30;;;;;;;;;;5009861;28;20422;-47
2022/07/31 14:39:19;;;;;;;1.90;1.13;;;;;;;;;;5009973;28;20022;-48
2022/07/31 14:42:05;;;;;;;4.20;1.30;;;;;;;;;;5008883;28;20109;-49
2022/07/31 14:44:52;;;;;;;1.33;1.00;;;;;;;;;;5005153;28;20132;-51
2022/07/31 14:47:37;;;;;;;5.22;1.48;;;;;;;;;;5006360;28;20241;-49
2022/07/31 14:50:23;;;;;;;4.57;1.40;;;;;;;;;;5009967;28;20041;-48
2022/07/31 14:53:10;;;;;;;3.53;1.30;;;;;;;;;;5008008;28;20033;-48
2022/07/31 14:55:55;;;;;;;3.40;1.30;;;;;;;;;;5007122;28;20709;-51
2022/07/31 14:58:41;;;;;;;2.72;1.30;;;;;;;;;;5010068;28;20096;-47
2022/07/31 15:01:27;;;;;;;3.42;1.40;;;;;;;;;;5008088;28;20030;-52
2022/07/31 15:04:12;;;;;;;2.97;1.10;;;;;;;;;;5007542;28;20033;-48
2022/07/31 15:06:59;;;;;;;1.30;1.20;;;;;;;;;;5007916;28;20363;-48
2022/07/31 15:09:45;;;;;;;3.25;2.22;;;;;;;;;;5003370;28;20661;-48
2022/07/31 15:12:31;;;;;;;2.63;1.27;;;;;;;;;;5003979;28;20478;-47
2022/07/31 15:15:17;;;;;;;4.00;1.10;;;;;;;;;;5006757;28;20076;-48
2022/07/31 15:18:03;;;;;;;5.22;2.17;;;;;;;;;;5006105;28;20116;-48
2022/07/31 15:20:48;;;;;;;3.13;1.25;;;;;;;;;;5007003;28;20038;-52
2022/07/31 15:23:34;;;;;;;2.75;1.30;;;;;;;;;;5007016;28;20137;-48
2022/07/31 15:26:20;;;;;;;2.72;1.40;;;;;;;;;;5007145;28;20033;-49
2022/07/31 15:29:05;;;;;;;2.15;1.10;;;;;;;;;;5009477;28;20029;-49
2022/07/31 15:31:51;;;;;;;4.57;1.25;;;;;;;;;;5008998;28;20033;-49
2022/07/31 15:34:37;;;;;;;3.42;1.30;;;;;;;;;;5003913;28;20486;-51
2022/07/31 15:37:22;;;;;;;4.25;1.20;;;;;;;;;;5009000;28;20018;-48
2022/07/31 15:40:11;;;;;;;2.50;1.30;;;;;;;;;;5006099;28;20026;-51
2022/07/31 15:42:57;;;;;;;5.38;1.20;;;;;;;;;;5005112;28;20029;-48
2022/07/31 15:45:43;;;;;;;1.20;1.10;;;;;;;;;;5006456;28;20430;-48
2022/07/31 15:48:28;;;;;;;4.55;1.10;;;;;;;;;;5005434;28;20123;-49
2022/07/31 15:51:14;;;;;;;6.03;1.20;;;;;;;;;;5007843;28;20533;-49
2022/07/31 15:54:00;;;;;;;1.70;1.23;;;;;;;;;;5007511;28;20022;-49
2022/07/31 15:56:45;;;;;;;1.35;1.15;;;;;;;;;;5009661;28;20062;-48
2022/07/31 15:59:31;;;;;;;1.75;1.00;;;;;;;;;;5010673;28;20054;-48
2022/07/31 16:02:17;;;;;;;2.15;1.35;;;;;;;;;;5008264;28;20034;-49
2022/07/31 16:05:04;;;;;;;3.33;1.40;;;;;;;;;;5009995;28;20069;-50
2022/07/31 16:07:49;;;;;;;3.60;1.30;;;;;;;;;;5006379;28;20034;-49
2022/07/31 16:10:36;;;;;;;2.58;1.33;;;;;;;;;;5005461;28;20031;-48
2022/07/31 16:13:23;;;;;;;1.23;1.10;;;;;;;;;;5007935;28;20034;-50
2022/07/31 16:16:08;;;;;;;1.50;1.25;;;;;;;;;;5008658;28;20395;-51
2022/07/31 16:18:54;;;;;;;14.18;1.58;;;;;;;;;;5007986;28;20042;-50
2022/07/31 16:21:40;;;;;;;3.83;1.10;;;;;;;;;;4999060;28;20060;-49
2022/07/31 16:24:26;;;;;;;3.17;1.27;;;;;;;;;;5002538;28;20044;-48
2022/07/31 16:27:12;;;;;;;1.38;0.90;;;;;;;;;;5005468;28;20026;-49
2022/07/31 16:29:57;;;;;;;1.83;1.00;;;;;;;;;;5005541;28;20029;-49
2022/07/31 16:32:43;;;;;;;3.92;1.50;;;;;;;;;;5006226;28;20689;-48
2022/07/31 16:35:29;;;;;;;4.47;1.13;;;;;;;;;;5007176;28;20117;-51
2022/07/31 16:38:15;;;;;;;2.75;1.10;;;;;;;;;;5001468;28;20041;-50
2022/07/31 16:41:01;;;;;;;0.90;0.90;;;;;;;;;;5007958;28;20513;-48
2022/07/31 16:43:47;;;;;;;1.40;0.88;;;;;;;;;;5007205;28;20107;-48
2022/07/31 16:46:33;;;;;;;4.95;1.13;;;;;;;;;;5005988;28;20046;-49